sensor_id;sensor_type;location;lat;lon;timestamp;P1;durP1;ratioP1;P2;durP2;ratioP2
10315;SDS011;5203;48.976;8.306;2023-02-01T00:00:45;8.27;;;6.23;;
10315;SDS011;5203;48.976;8.306;2023-02-01T00:03:11;10.57;;;6.63;;
10315;SDS011;5203;48.976;8.306;2023-02-01T00:05:37;8.63;;;6.97;;
10315;SDS011;5203;48.976;8.306;2023-02-01T00:08:03;7.13;;;6.33;;
10315;SDS011;5203;48.976;8.306;2023-02-01T00:10:29;6.17;;;5.57;;
10315;SDS011;5203;48.976;8.306;2023-02-01T00:12:55;6.63;;;5.63;;
10315;SDS011;5203;48.976;8.306;2023-02-01T00:15:21;6.67;;;5.97;;
10315;SDS011;5203;48.976;8.306;2023-02-01T00:17:48;6.97;;;5.97;;
10315;SDS011;5203;48.976;8.306;2023-02-01T00:20:18;7.43;;;5.40;;
10315;SDS011;5203;48.976;8.306;2023-02-01T00:22:43;6.97;;;6.27;;
10315;SDS011;5203;48.976;8.306;2023-02-01T00:25:09;7.47;;;6.07;;
10315;SDS011;5203;48.976;8.306;2023-02-01T00:27:34;8.27;;;6.33;;
10315;SDS011;5203;48.976;8.306;2023-02-01T00:30:00;8.07;;;6.30;;
10315;SDS011;5203;48.976;8.306;2023-02-01T00:32:26;6.30;;;5.70;;
10315;SDS011;5203;48.976;8.306;2023-02-01T00:34:52;8.13;;;5.90;;
10315;SDS011;5203;48.976;8.306;2023-02-01T00:37:17;6.47;;;5.73;;
10315;SDS011;5203;48.976;8.306;2023-02-01T00:39:43;6.00;;;5.40;;
10315;SDS011;5203;48.976;8.306;2023-02-01T00:42:09;7.10;;;6.40;;
10315;SDS011;5203;48.976;8.306;2023-02-01T00:44:35;7.10;;;5.07;;
10315;SDS011;5203;48.976;8.306;2023-02-01T00:47:00;6.67;;;4.97;;
10315;SDS011;5203;48.976;8.306;2023-02-01T00:49:27;6.43;;;5.10;;
10315;SDS011;5203;48.976;8.306;2023-02-01T00:51:53;6.57;;;5.57;;
10315;SDS011;5203;48.976;8.306;2023-02-01T00:54:19;5.63;;;4.90;;
10315;SDS011;5203;48.976;8.306;2023-02-01T00:56:44;5.70;;;5.00;;
10315;SDS011;5203;48.976;8.306;2023-02-01T00:59:11;6.57;;;5.23;;
10315;SDS011;5203;48.976;8.306;2023-02-01T01:01:37;6.67;;;5.17;;
10315;SDS011;5203;48.976;8.306;2023-02-01T01:04:02;7.13;;;5.70;;
10315;SDS011;5203;48.976;8.306;2023-02-01T01:06:29;5.53;;;5.03;;
10315;SDS011;5203;48.976;8.306;2023-02-01T01:08:56;6.13;;;5.10;;
10315;SDS011;5203;48.976;8.306;2023-02-01T01:11:25;9.03;;;5.60;;
10315;SDS011;5203;48.976;8.306;2023-02-01T01:13:53;5.93;;;5.33;;
10315;SDS011;5203;48.976;8.306;2023-02-01T01:16:20;5.30;;;4.80;;
10315;SDS011;5203;48.976;8.306;2023-02-01T01:18:49;5.60;;;4.63;;
10315;SDS011;5203;48.976;8.306;2023-02-01T01:21:15;8.10;;;4.70;;
10315;SDS011;5203;48.976;8.306;2023-02-01T01:23:42;5.20;;;4.70;;
10315;SDS011;5203;48.976;8.306;2023-02-01T01:26:09;5.17;;;4.63;;
10315;SDS011;5203;48.976;8.306;2023-02-01T01:28:39;5.20;;;4.33;;
10315;SDS011;5203;48.976;8.306;2023-02-01T01:31:07;4.87;;;4.37;;
10315;SDS011;5203;48.976;8.306;2023-02-01T01:33:34;5.00;;;4.50;;
10315;SDS011;5203;48.976;8.306;2023-02-01T01:36:00;4.77;;;4.37;;
10315;SDS011;5203;48.976;8.306;2023-02-01T01:38:26;7.67;;;4.77;;
10315;SDS011;5203;48.976;8.306;2023-02-01T01:40:51;4.83;;;4.33;;
10315;SDS011;5203;48.976;8.306;2023-02-01T01:43:19;4.60;;;4.20;;
10315;SDS011;5203;48.976;8.306;2023-02-01T01:45:49;4.80;;;4.30;;
10315;SDS011;5203;48.976;8.306;2023-02-01T01:48:17;5.57;;;4.40;;
10315;SDS011;5203;48.976;8.306;2023-02-01T01:51:02;5.00;;;4.50;;
10315;SDS011;5203;48.976;8.306;2023-02-01T01:53:33;5.47;;;4.63;;
10315;SDS011;5203;48.976;8.306;2023-02-01T01:56:07;4.40;;;4.00;;
10315;SDS011;5203;48.976;8.306;2023-02-01T01:58:33;5.73;;;3.70;;
10315;SDS011;5203;48.976;8.306;2023-02-01T02:00:59;5.33;;;4.13;;
10315;SDS011;5203;48.976;8.306;2023-02-01T02:03:27;4.93;;;3.93;;
10315;SDS011;5203;48.976;8.306;2023-02-01T02:05:59;8.07;;;4.40;;
10315;SDS011;5203;48.976;8.306;2023-02-01T02:08:28;5.63;;;4.50;;
10315;SDS011;5203;48.976;8.306;2023-02-01T02:10:54;6.07;;;4.43;;
10315;SDS011;5203;48.976;8.306;2023-02-01T02:13:27;5.53;;;4.17;;
10315;SDS011;5203;48.976;8.306;2023-02-01T02:16:05;4.63;;;4.07;;
10315;SDS011;5203;48.976;8.306;2023-02-01T02:21:17;5.43;;;4.40;;
10315;SDS011;5203;48.976;8.306;2023-02-01T02:26:55;4.67;;;4.17;;
10315;SDS011;5203;48.976;8.306;2023-02-01T02:40:04;6.30;;;4.20;;
10315;SDS011;5203;48.976;8.306;2023-02-01T02:42:50;5.60;;;4.40;;
10315;SDS011;5203;48.976;8.306;2023-02-01T02:45:48;5.53;;;4.43;;
10315;SDS011;5203;48.976;8.306;2023-02-01T02:49:12;4.07;;;3.67;;
10315;SDS011;5203;48.976;8.306;2023-02-01T02:51:46;5.40;;;4.03;;
10315;SDS011;5203;48.976;8.306;2023-02-01T02:54:56;4.73;;;4.10;;
10315;SDS011;5203;48.976;8.306;2023-02-01T03:00:24;4.03;;;3.67;;
10315;SDS011;5203;48.976;8.306;2023-02-01T03:03:12;4.03;;;3.63;;
10315;SDS011;5203;48.976;8.306;2023-02-01T03:05:56;4.50;;;4.00;;
10315;SDS011;5203;48.976;8.306;2023-02-01T03:08:24;4.60;;;4.20;;
10315;SDS011;5203;48.976;8.306;2023-02-01T03:16:15;5.17;;;3.57;;
10315;SDS011;5203;48.976;8.306;2023-02-01T03:19:05;5.07;;;4.27;;
10315;SDS011;5203;48.976;8.306;2023-02-01T03:22:19;4.40;;;3.87;;
10315;SDS011;5203;48.976;8.306;2023-02-01T03:24:35;4.83;;;4.43;;
10315;SDS011;5203;48.976;8.306;2023-02-01T03:27:09;5.07;;;4.10;;
10315;SDS011;5203;48.976;8.306;2023-02-01T03:32:22;4.90;;;4.50;;
10315;SDS011;5203;48.976;8.306;2023-02-01T03:34:48;4.63;;;4.10;;
10315;SDS011;5203;48.976;8.306;2023-02-01T03:37:16;4.70;;;4.10;;
10315;SDS011;5203;48.976;8.306;2023-02-01T03:40:00;6.77;;;4.53;;
10315;SDS011;5203;48.976;8.306;2023-02-01T03:45:07;4.30;;;3.90;;
10315;SDS011;5203;48.976;8.306;2023-02-01T03:47:39;6.10;;;4.40;;
10315;SDS011;5203;48.976;8.306;2023-02-01T03:50:09;6.07;;;4.30;;
10315;SDS011;5203;48.976;8.306;2023-02-01T03:52:41;4.27;;;3.87;;
10315;SDS011;5203;48.976;8.306;2023-02-01T03:55:10;4.73;;;4.17;;
10315;SDS011;5203;48.976;8.306;2023-02-01T03:57:44;4.73;;;4.13;;
10315;SDS011;5203;48.976;8.306;2023-02-01T04:00:17;4.67;;;4.20;;
10315;SDS011;5203;48.976;8.306;2023-02-01T04:02:47;4.63;;;4.13;;
10315;SDS011;5203;48.976;8.306;2023-02-01T04:05:13;4.83;;;4.10;;
10315;SDS011;5203;48.976;8.306;2023-02-01T04:07:39;7.67;;;4.00;;
10315;SDS011;5203;48.976;8.306;2023-02-01T04:10:05;4.10;;;3.70;;
10315;SDS011;5203;48.976;8.306;2023-02-01T04:12:31;5.80;;;3.97;;
10315;SDS011;5203;48.976;8.306;2023-02-01T04:14:57;4.73;;;4.23;;
10315;SDS011;5203;48.976;8.306;2023-02-01T04:17:23;4.30;;;3.90;;
10315;SDS011;5203;48.976;8.306;2023-02-01T04:19:49;4.83;;;4.27;;
10315;SDS011;5203;48.976;8.306;2023-02-01T04:22:14;5.80;;;4.40;;
10315;SDS011;5203;48.976;8.306;2023-02-01T04:24:40;4.67;;;3.97;;
10315;SDS011;5203;48.976;8.306;2023-02-01T04:27:06;5.43;;;4.83;;
10315;SDS011;5203;48.976;8.306;2023-02-01T04:29:31;4.80;;;4.40;;
10315;SDS011;5203;48.976;8.306;2023-02-01T04:31:57;5.67;;;4.87;;
10315;SDS011;5203;48.976;8.306;2023-02-01T04:34:23;5.33;;;3.97;;
10315;SDS011;5203;48.976;8.306;2023-02-01T04:36:49;4.90;;;4.40;;
10315;SDS011;5203;48.976;8.306;2023-02-01T04:39:15;5.47;;;4.87;;
10315;SDS011;5203;48.976;8.306;2023-02-01T04:41:41;5.63;;;4.40;;
10315;SDS011;5203;48.976;8.306;2023-02-01T04:44:08;6.63;;;5.20;;
10315;SDS011;5203;48.976;8.306;2023-02-01T04:46:42;5.37;;;4.77;;
10315;SDS011;5203;48.976;8.306;2023-02-01T04:49:08;5.47;;;4.97;;
10315;SDS011;5203;48.976;8.306;2023-02-01T04:51:35;4.70;;;4.27;;
10315;SDS011;5203;48.976;8.306;2023-02-01T04:54:00;5.50;;;4.53;;
10315;SDS011;5203;48.976;8.306;2023-02-01T04:56:26;5.20;;;4.27;;
10315;SDS011;5203;48.976;8.306;2023-02-01T04:58:52;5.40;;;4.33;;
10315;SDS011;5203;48.976;8.306;2023-02-01T05:01:17;5.37;;;4.50;;
10315;SDS011;5203;48.976;8.306;2023-02-01T05:03:43;4.87;;;4.43;;
10315;SDS011;5203;48.976;8.306;2023-02-01T05:06:09;7.47;;;4.40;;
10315;SDS011;5203;48.976;8.306;2023-02-01T05:08:34;4.93;;;4.20;;
10315;SDS011;5203;48.976;8.306;2023-02-01T05:11:00;4.83;;;4.37;;
10315;SDS011;5203;48.976;8.306;2023-02-01T05:13:37;4.93;;;4.53;;
10315;SDS011;5203;48.976;8.306;2023-02-01T05:16:14;5.33;;;4.83;;
10315;SDS011;5203;48.976;8.306;2023-02-01T05:18:40;6.13;;;4.87;;
10315;SDS011;5203;48.976;8.306;2023-02-01T05:21:06;5.33;;;4.83;;
10315;SDS011;5203;48.976;8.306;2023-02-01T05:23:32;5.20;;;4.70;;
10315;SDS011;5203;48.976;8.306;2023-02-01T05:26:18;4.73;;;4.33;;
10315;SDS011;5203;48.976;8.306;2023-02-01T05:28:43;5.00;;;4.13;;
10315;SDS011;5203;48.976;8.306;2023-02-01T05:31:10;4.87;;;4.43;;
10315;SDS011;5203;48.976;8.306;2023-02-01T05:33:36;5.00;;;4.50;;
10315;SDS011;5203;48.976;8.306;2023-02-01T05:36:01;5.23;;;4.73;;
10315;SDS011;5203;48.976;8.306;2023-02-01T05:38:28;5.93;;;4.93;;
10315;SDS011;5203;48.976;8.306;2023-02-01T05:40:54;4.43;;;4.03;;
10315;SDS011;5203;48.976;8.306;2023-02-01T05:43:20;7.10;;;4.37;;
10315;SDS011;5203;48.976;8.306;2023-02-01T05:45:46;4.60;;;4.20;;
10315;SDS011;5203;48.976;8.306;2023-02-01T05:48:12;4.80;;;4.27;;
10315;SDS011;5203;48.976;8.306;2023-02-01T05:50:37;6.57;;;4.57;;
10315;SDS011;5203;48.976;8.306;2023-02-01T05:53:03;5.63;;;4.20;;
10315;SDS011;5203;48.976;8.306;2023-02-01T05:55:28;5.53;;;4.83;;
10315;SDS011;5203;48.976;8.306;2023-02-01T05:57:54;5.37;;;4.47;;
10315;SDS011;5203;48.976;8.306;2023-02-01T06:00:20;6.07;;;5.00;;
10315;SDS011;5203;48.976;8.306;2023-02-01T06:02:46;7.63;;;4.97;;
10315;SDS011;5203;48.976;8.306;2023-02-01T06:05:11;5.47;;;4.80;;
10315;SDS011;5203;48.976;8.306;2023-02-01T06:07:37;5.20;;;4.10;;
10315;SDS011;5203;48.976;8.306;2023-02-01T06:10:03;6.90;;;4.43;;
10315;SDS011;5203;48.976;8.306;2023-02-01T06:12:29;6.80;;;4.90;;
10315;SDS011;5203;48.976;8.306;2023-02-01T06:14:55;5.63;;;4.60;;
10315;SDS011;5203;48.976;8.306;2023-02-01T06:17:20;5.27;;;4.53;;
10315;SDS011;5203;48.976;8.306;2023-02-01T06:19:46;6.10;;;4.57;;
10315;SDS011;5203;48.976;8.306;2023-02-01T06:22:13;5.90;;;4.67;;
10315;SDS011;5203;48.976;8.306;2023-02-01T06:24:39;5.27;;;4.53;;
10315;SDS011;5203;48.976;8.306;2023-02-01T06:27:06;5.93;;;5.03;;
10315;SDS011;5203;48.976;8.306;2023-02-01T06:29:32;6.40;;;4.70;;
10315;SDS011;5203;48.976;8.306;2023-02-01T06:31:58;4.93;;;4.40;;
10315;SDS011;5203;48.976;8.306;2023-02-01T06:34:24;8.30;;;4.90;;
10315;SDS011;5203;48.976;8.306;2023-02-01T06:36:49;5.07;;;4.53;;
10315;SDS011;5203;48.976;8.306;2023-02-01T06:39:15;4.83;;;4.37;;
10315;SDS011;5203;48.976;8.306;2023-02-01T06:41:41;6.50;;;4.47;;
10315;SDS011;5203;48.976;8.306;2023-02-01T06:44:16;5.00;;;4.50;;
10315;SDS011;5203;48.976;8.306;2023-02-01T06:46:42;5.90;;;4.83;;
10315;SDS011;5203;48.976;8.306;2023-02-01T06:49:08;5.27;;;4.50;;
10315;SDS011;5203;48.976;8.306;2023-02-01T06:51:33;7.07;;;4.93;;
10315;SDS011;5203;48.976;8.306;2023-02-01T06:53:59;5.27;;;4.37;;
10315;SDS011;5203;48.976;8.306;2023-02-01T06:56:26;6.13;;;4.50;;
10315;SDS011;5203;48.976;8.306;2023-02-01T06:58:52;6.07;;;4.73;;
10315;SDS011;5203;48.976;8.306;2023-02-01T07:01:18;4.93;;;4.30;;
10315;SDS011;5203;48.976;8.306;2023-02-01T07:03:48;5.93;;;4.60;;
10315;SDS011;5203;48.976;8.306;2023-02-01T07:06:16;6.03;;;4.70;;
10315;SDS011;5203;48.976;8.306;2023-02-01T07:08:42;8.33;;;5.07;;
10315;SDS011;5203;48.976;8.306;2023-02-01T07:11:09;7.43;;;4.63;;
10315;SDS011;5203;48.976;8.306;2023-02-01T07:13:37;8.07;;;4.83;;
10315;SDS011;5203;48.976;8.306;2023-02-01T07:16:04;5.37;;;4.70;;
10315;SDS011;5203;48.976;8.306;2023-02-01T07:18:32;5.23;;;4.47;;
10315;SDS011;5203;48.976;8.306;2023-02-01T07:20:58;5.43;;;4.80;;
10315;SDS011;5203;48.976;8.306;2023-02-01T07:23:24;6.63;;;4.53;;
10315;SDS011;5203;48.976;8.306;2023-02-01T07:25:57;5.57;;;4.73;;
10315;SDS011;5203;48.976;8.306;2023-02-01T07:28:25;5.43;;;4.93;;
10315;SDS011;5203;48.976;8.306;2023-02-01T07:30:52;8.77;;;5.30;;
10315;SDS011;5203;48.976;8.306;2023-02-01T07:33:19;8.23;;;4.67;;
10315;SDS011;5203;48.976;8.306;2023-02-01T07:35:47;5.77;;;5.03;;
10315;SDS011;5203;48.976;8.306;2023-02-01T07:38:13;6.53;;;5.17;;
10315;SDS011;5203;48.976;8.306;2023-02-01T07:40:39;7.13;;;5.23;;
10315;SDS011;5203;48.976;8.306;2023-02-01T07:43:05;6.53;;;4.53;;
10315;SDS011;5203;48.976;8.306;2023-02-01T07:45:34;8.30;;;5.10;;
10315;SDS011;5203;48.976;8.306;2023-02-01T07:48:00;6.80;;;5.07;;
10315;SDS011;5203;48.976;8.306;2023-02-01T07:50:26;9.17;;;4.80;;
10315;SDS011;5203;48.976;8.306;2023-02-01T07:52:52;6.90;;;4.77;;
10315;SDS011;5203;48.976;8.306;2023-02-01T07:55:18;6.37;;;4.57;;
10315;SDS011;5203;48.976;8.306;2023-02-01T07:57:44;6.17;;;4.47;;
10315;SDS011;5203;48.976;8.306;2023-02-01T08:00:10;5.63;;;4.27;;
10315;SDS011;5203;48.976;8.306;2023-02-01T08:02:57;8.60;;;4.73;;
10315;SDS011;5203;48.976;8.306;2023-02-01T08:05:25;7.53;;;4.93;;
10315;SDS011;5203;48.976;8.306;2023-02-01T08:07:51;6.53;;;4.77;;
10315;SDS011;5203;48.976;8.306;2023-02-01T08:10:17;5.00;;;4.50;;
10315;SDS011;5203;48.976;8.306;2023-02-01T08:12:43;5.40;;;4.80;;
10315;SDS011;5203;48.976;8.306;2023-02-01T08:15:17;4.37;;;3.73;;
10315;SDS011;5203;48.976;8.306;2023-02-01T08:17:46;5.50;;;4.43;;
10315;SDS011;5203;48.976;8.306;2023-02-01T08:20:13;5.03;;;4.03;;
10315;SDS011;5203;48.976;8.306;2023-02-01T08:22:39;4.73;;;4.20;;
10315;SDS011;5203;48.976;8.306;2023-02-01T08:25:05;4.70;;;4.03;;
10315;SDS011;5203;48.976;8.306;2023-02-01T08:27:34;6.83;;;4.23;;
10315;SDS011;5203;48.976;8.306;2023-02-01T08:30:00;6.47;;;4.23;;
10315;SDS011;5203;48.976;8.306;2023-02-01T08:32:26;6.60;;;4.30;;
10315;SDS011;5203;48.976;8.306;2023-02-01T08:34:52;4.70;;;3.80;;
10315;SDS011;5203;48.976;8.306;2023-02-01T08:37:18;5.63;;;4.60;;
10315;SDS011;5203;48.976;8.306;2023-02-01T08:39:44;6.40;;;4.57;;
10315;SDS011;5203;48.976;8.306;2023-02-01T08:42:10;5.27;;;4.20;;
10315;SDS011;5203;48.976;8.306;2023-02-01T08:44:55;6.13;;;4.03;;
10315;SDS011;5203;48.976;8.306;2023-02-01T08:47:21;5.80;;;3.97;;
10315;SDS011;5203;48.976;8.306;2023-02-01T08:49:47;7.17;;;4.60;;
10315;SDS011;5203;48.976;8.306;2023-02-01T08:52:12;5.90;;;3.90;;
10315;SDS011;5203;48.976;8.306;2023-02-01T08:54:38;7.20;;;4.33;;
10315;SDS011;5203;48.976;8.306;2023-02-01T08:57:06;4.57;;;3.90;;
10315;SDS011;5203;48.976;8.306;2023-02-01T08:59:32;7.10;;;4.23;;
10315;SDS011;5203;48.976;8.306;2023-02-01T09:01:58;7.70;;;4.60;;
10315;SDS011;5203;48.976;8.306;2023-02-01T09:04:23;6.77;;;3.90;;
10315;SDS011;5203;48.976;8.306;2023-02-01T09:06:49;7.17;;;3.87;;
10315;SDS011;5203;48.976;8.306;2023-02-01T09:09:15;5.87;;;4.03;;
10315;SDS011;5203;48.976;8.306;2023-02-01T09:11:40;5.50;;;3.80;;
10315;SDS011;5203;48.976;8.306;2023-02-01T09:14:06;6.10;;;3.83;;
10315;SDS011;5203;48.976;8.306;2023-02-01T09:16:32;5.57;;;3.87;;
10315;SDS011;5203;48.976;8.306;2023-02-01T09:18:57;8.80;;;4.23;;
10315;SDS011;5203;48.976;8.306;2023-02-01T09:21:23;6.93;;;4.13;;
10315;SDS011;5203;48.976;8.306;2023-02-01T09:23:50;6.67;;;4.40;;
10315;SDS011;5203;48.976;8.306;2023-02-01T09:26:16;8.43;;;3.87;;
10315;SDS011;5203;48.976;8.306;2023-02-01T09:28:42;7.17;;;4.47;;
10315;SDS011;5203;48.976;8.306;2023-02-01T09:31:08;6.67;;;4.00;;
10315;SDS011;5203;48.976;8.306;2023-02-01T09:33:33;7.83;;;3.83;;
10315;SDS011;5203;48.976;8.306;2023-02-01T09:36:01;6.03;;;3.63;;
10315;SDS011;5203;48.976;8.306;2023-02-01T09:38:29;6.30;;;3.87;;
10315;SDS011;5203;48.976;8.306;2023-02-01T09:40:56;3.87;;;3.20;;
10315;SDS011;5203;48.976;8.306;2023-02-01T09:46:29;7.43;;;4.23;;
10315;SDS011;5203;48.976;8.306;2023-02-01T09:48:59;7.13;;;3.67;;
10315;SDS011;5203;48.976;8.306;2023-02-01T09:51:32;9.70;;;3.43;;
10315;SDS011;5203;48.976;8.306;2023-02-01T09:56:45;9.27;;;3.87;;
10315;SDS011;5203;48.976;8.306;2023-02-01T10:02:10;8.53;;;4.30;;
10315;SDS011;5203;48.976;8.306;2023-02-01T10:04:39;7.30;;;3.70;;
10315;SDS011;5203;48.976;8.306;2023-02-01T10:12:41;9.40;;;4.10;;
10315;SDS011;5203;48.976;8.306;2023-02-01T10:19:03;9.50;;;3.67;;
10315;SDS011;5203;48.976;8.306;2023-02-01T10:27:19;5.53;;;3.17;;
10315;SDS011;5203;48.976;8.306;2023-02-01T10:29:48;4.47;;;3.60;;
10315;SDS011;5203;48.976;8.306;2023-02-01T10:32:27;6.20;;;3.57;;
10315;SDS011;5203;48.976;8.306;2023-02-01T10:35:21;6.77;;;3.87;;
10315;SDS011;5203;48.976;8.306;2023-02-01T10:38:00;5.70;;;3.60;;
10315;SDS011;5203;48.976;8.306;2023-02-01T10:40:27;5.47;;;3.47;;
10315;SDS011;5203;48.976;8.306;2023-02-01T10:42:54;8.63;;;3.87;;
10315;SDS011;5203;48.976;8.306;2023-02-01T10:45:30;6.93;;;3.97;;
10315;SDS011;5203;48.976;8.306;2023-02-01T10:47:58;10.93;;;4.37;;
10315;SDS011;5203;48.976;8.306;2023-02-01T10:53:42;6.87;;;3.83;;
10315;SDS011;5203;48.976;8.306;2023-02-01T10:56:21;8.07;;;3.87;;
10315;SDS011;5203;48.976;8.306;2023-02-01T10:58:49;8.97;;;3.40;;
10315;SDS011;5203;48.976;8.306;2023-02-01T11:01:20;7.30;;;4.30;;
10315;SDS011;5203;48.976;8.306;2023-02-01T11:07:03;7.50;;;3.93;;
10315;SDS011;5203;48.976;8.306;2023-02-01T11:09:21;8.13;;;4.10;;
10315;SDS011;5203;48.976;8.306;2023-02-01T11:16:49;7.87;;;4.43;;
10315;SDS011;5203;48.976;8.306;2023-02-01T11:19:17;6.30;;;3.53;;
10315;SDS011;5203;48.976;8.306;2023-02-01T11:21:43;5.07;;;3.60;;
10315;SDS011;5203;48.976;8.306;2023-02-01T11:24:22;9.67;;;4.10;;
10315;SDS011;5203;48.976;8.306;2023-02-01T11:26:50;8.87;;;4.13;;
10315;SDS011;5203;48.976;8.306;2023-02-01T11:29:19;7.77;;;4.33;;
10315;SDS011;5203;48.976;8.306;2023-02-01T11:31:53;8.97;;;3.93;;
10315;SDS011;5203;48.976;8.306;2023-02-01T11:34:31;7.77;;;4.40;;
10315;SDS011;5203;48.976;8.306;2023-02-01T11:37:21;10.80;;;4.00;;
10315;SDS011;5203;48.976;8.306;2023-02-01T11:40:01;6.87;;;4.50;;
10315;SDS011;5203;48.976;8.306;2023-02-01T11:42:58;10.13;;;3.77;;
10315;SDS011;5203;48.976;8.306;2023-02-01T11:48:02;14.43;;;4.27;;
10315;SDS011;5203;48.976;8.306;2023-02-01T12:07:19;8.93;;;3.77;;
10315;SDS011;5203;48.976;8.306;2023-02-01T12:26:40;8.33;;;4.13;;
10315;SDS011;5203;48.976;8.306;2023-02-01T12:32:14;6.97;;;3.90;;
10315;SDS011;5203;48.976;8.306;2023-02-01T12:35:04;7.90;;;3.97;;
10315;SDS011;5203;48.976;8.306;2023-02-01T12:43:16;5.70;;;3.90;;
10315;SDS011;5203;48.976;8.306;2023-02-01T12:45:53;8.60;;;3.93;;
10315;SDS011;5203;48.976;8.306;2023-02-01T12:50:59;9.33;;;3.83;;
10315;SDS011;5203;48.976;8.306;2023-02-01T12:56:28;12.53;;;5.10;;
10315;SDS011;5203;48.976;8.306;2023-02-01T13:07:11;11.83;;;4.30;;
10315;SDS011;5203;48.976;8.306;2023-02-01T13:09:45;13.43;;;4.27;;
10315;SDS011;5203;48.976;8.306;2023-02-01T13:12:21;13.00;;;4.47;;
10315;SDS011;5203;48.976;8.306;2023-02-01T13:14:58;15.17;;;4.10;;
10315;SDS011;5203;48.976;8.306;2023-02-01T13:17:29;13.20;;;4.03;;
10315;SDS011;5203;48.976;8.306;2023-02-01T13:19:59;9.20;;;3.73;;
10315;SDS011;5203;48.976;8.306;2023-02-01T13:22:39;10.50;;;3.93;;
10315;SDS011;5203;48.976;8.306;2023-02-01T13:25:12;10.53;;;4.00;;
10315;SDS011;5203;48.976;8.306;2023-02-01T13:27:41;10.43;;;4.13;;
10315;SDS011;5203;48.976;8.306;2023-02-01T13:30:23;11.60;;;4.20;;
10315;SDS011;5203;48.976;8.306;2023-02-01T13:41:57;9.97;;;4.33;;
10315;SDS011;5203;48.976;8.306;2023-02-01T13:47:13;9.20;;;3.70;;
10315;SDS011;5203;48.976;8.306;2023-02-01T13:49:47;12.03;;;5.03;;
10315;SDS011;5203;48.976;8.306;2023-02-01T13:55:37;11.17;;;4.13;;
10315;SDS011;5203;48.976;8.306;2023-02-01T13:57:46;11.07;;;4.07;;
10315;SDS011;5203;48.976;8.306;2023-02-01T14:00:26;8.37;;;4.10;;
10315;SDS011;5203;48.976;8.306;2023-02-01T14:08:02;9.50;;;4.10;;
10315;SDS011;5203;48.976;8.306;2023-02-01T14:13:28;16.90;;;4.60;;
10315;SDS011;5203;48.976;8.306;2023-02-01T14:21:21;8.70;;;4.17;;
10315;SDS011;5203;48.976;8.306;2023-02-01T14:26:47;10.40;;;4.23;;
10315;SDS011;5203;48.976;8.306;2023-02-01T14:34:31;10.23;;;4.37;;
10315;SDS011;5203;48.976;8.306;2023-02-01T14:37:03;10.93;;;4.10;;
10315;SDS011;5203;48.976;8.306;2023-02-01T14:42:18;7.80;;;3.57;;
10315;SDS011;5203;48.976;8.306;2023-02-01T14:47:46;9.73;;;4.27;;
10315;SDS011;5203;48.976;8.306;2023-02-01T14:55:44;13.50;;;4.50;;
10315;SDS011;5203;48.976;8.306;2023-02-01T14:58:31;13.67;;;4.00;;
10315;SDS011;5203;48.976;8.306;2023-02-01T15:04:01;10.50;;;3.93;;
10315;SDS011;5203;48.976;8.306;2023-02-01T15:09:33;11.67;;;4.53;;
10315;SDS011;5203;48.976;8.306;2023-02-01T15:14:37;12.30;;;4.53;;
10315;SDS011;5203;48.976;8.306;2023-02-01T15:17:20;9.43;;;4.77;;
10315;SDS011;5203;48.976;8.306;2023-02-01T15:19:57;11.77;;;4.77;;
10315;SDS011;5203;48.976;8.306;2023-02-01T15:22:27;8.20;;;4.47;;
10315;SDS011;5203;48.976;8.306;2023-02-01T15:24:56;9.37;;;4.70;;
10315;SDS011;5203;48.976;8.306;2023-02-01T15:27:24;11.00;;;4.40;;
10315;SDS011;5203;48.976;8.306;2023-02-01T15:29:51;9.87;;;4.53;;
10315;SDS011;5203;48.976;8.306;2023-02-01T15:34:56;12.77;;;4.47;;
10315;SDS011;5203;48.976;8.306;2023-02-01T15:37:21;7.67;;;3.83;;
10315;SDS011;5203;48.976;8.306;2023-02-01T15:42:35;13.43;;;4.47;;
10315;SDS011;5203;48.976;8.306;2023-02-01T15:45:21;9.33;;;3.73;;
10315;SDS011;5203;48.976;8.306;2023-02-01T15:47:52;12.37;;;4.00;;
10315;SDS011;5203;48.976;8.306;2023-02-01T15:50:19;10.53;;;4.40;;
10315;SDS011;5203;48.976;8.306;2023-02-01T15:52:49;10.17;;;4.27;;
10315;SDS011;5203;48.976;8.306;2023-02-01T15:57:45;10.20;;;4.77;;
10315;SDS011;5203;48.976;8.306;2023-02-01T16:00:24;14.33;;;4.77;;
10315;SDS011;5203;48.976;8.306;2023-02-01T16:02:53;8.80;;;4.67;;
10315;SDS011;5203;48.976;8.306;2023-02-01T16:10:29;10.20;;;4.37;;
10315;SDS011;5203;48.976;8.306;2023-02-01T16:12:55;10.63;;;3.93;;
10315;SDS011;5203;48.976;8.306;2023-02-01T16:15:25;8.20;;;4.10;;
10315;SDS011;5203;48.976;8.306;2023-02-01T16:17:51;8.10;;;3.90;;
10315;SDS011;5203;48.976;8.306;2023-02-01T16:20:17;10.93;;;4.43;;
10315;SDS011;5203;48.976;8.306;2023-02-01T16:22:43;8.67;;;3.93;;
10315;SDS011;5203;48.976;8.306;2023-02-01T16:25:09;10.23;;;4.47;;
10315;SDS011;5203;48.976;8.306;2023-02-01T16:27:34;11.40;;;3.70;;
10315;SDS011;5203;48.976;8.306;2023-02-01T16:30:00;13.63;;;4.03;;
10315;SDS011;5203;48.976;8.306;2023-02-01T16:32:25;8.67;;;3.63;;
10315;SDS011;5203;48.976;8.306;2023-02-01T16:34:51;9.90;;;3.40;;
10315;SDS011;5203;48.976;8.306;2023-02-01T16:37:24;12.67;;;4.33;;
10315;SDS011;5203;48.976;8.306;2023-02-01T16:39:50;8.70;;;3.63;;
10315;SDS011;5203;48.976;8.306;2023-02-01T16:42:16;10.53;;;3.97;;
10315;SDS011;5203;48.976;8.306;2023-02-01T16:44:42;9.47;;;4.07;;
10315;SDS011;5203;48.976;8.306;2023-02-01T16:47:12;11.07;;;4.17;;
10315;SDS011;5203;48.976;8.306;2023-02-01T16:49:43;7.97;;;4.00;;
10315;SDS011;5203;48.976;8.306;2023-02-01T16:52:14;7.10;;;3.93;;
10315;SDS011;5203;48.976;8.306;2023-02-01T16:54:44;7.60;;;3.63;;
10315;SDS011;5203;48.976;8.306;2023-02-01T16:57:13;11.97;;;4.27;;
10315;SDS011;5203;48.976;8.306;2023-02-01T16:59:41;12.90;;;4.33;;
10315;SDS011;5203;48.976;8.306;2023-02-01T17:02:15;10.40;;;3.90;;
10315;SDS011;5203;48.976;8.306;2023-02-01T17:04:44;9.87;;;3.60;;
10315;SDS011;5203;48.976;8.306;2023-02-01T17:07:17;13.77;;;4.93;;
10315;SDS011;5203;48.976;8.306;2023-02-01T17:09:43;7.73;;;3.40;;
10315;SDS011;5203;48.976;8.306;2023-02-01T17:12:21;9.77;;;4.40;;
10315;SDS011;5203;48.976;8.306;2023-02-01T17:14:47;8.93;;;4.13;;
10315;SDS011;5203;48.976;8.306;2023-02-01T17:17:13;10.90;;;4.20;;
10315;SDS011;5203;48.976;8.306;2023-02-01T17:19:39;7.23;;;3.43;;
10315;SDS011;5203;48.976;8.306;2023-02-01T17:22:05;7.03;;;3.50;;
10315;SDS011;5203;48.976;8.306;2023-02-01T17:24:31;10.20;;;3.43;;
10315;SDS011;5203;48.976;8.306;2023-02-01T17:26:57;10.43;;;3.60;;
10315;SDS011;5203;48.976;8.306;2023-02-01T17:29:23;8.57;;;3.37;;
10315;SDS011;5203;48.976;8.306;2023-02-01T17:31:50;13.70;;;4.33;;
10315;SDS011;5203;48.976;8.306;2023-02-01T17:34:18;8.50;;;3.70;;
10315;SDS011;5203;48.976;8.306;2023-02-01T17:36:45;7.83;;;3.50;;
10315;SDS011;5203;48.976;8.306;2023-02-01T17:39:12;9.33;;;3.87;;
10315;SDS011;5203;48.976;8.306;2023-02-01T17:41:59;9.83;;;3.97;;
10315;SDS011;5203;48.976;8.306;2023-02-01T17:44:25;12.30;;;4.10;;
10315;SDS011;5203;48.976;8.306;2023-02-01T17:46:50;11.17;;;4.03;;
10315;SDS011;5203;48.976;8.306;2023-02-01T17:49:16;8.30;;;3.87;;
10315;SDS011;5203;48.976;8.306;2023-02-01T17:51:42;8.63;;;3.97;;
10315;SDS011;5203;48.976;8.306;2023-02-01T17:54:13;8.43;;;4.47;;
10315;SDS011;5203;48.976;8.306;2023-02-01T17:56:40;11.60;;;4.03;;
10315;SDS011;5203;48.976;8.306;2023-02-01T17:59:06;9.43;;;3.40;;
10315;SDS011;5203;48.976;8.306;2023-02-01T18:01:32;11.67;;;4.57;;
10315;SDS011;5203;48.976;8.306;2023-02-01T18:03:57;9.57;;;3.90;;
10315;SDS011;5203;48.976;8.306;2023-02-01T18:06:24;9.27;;;4.00;;
10315;SDS011;5203;48.976;8.306;2023-02-01T18:08:50;9.70;;;4.20;;
10315;SDS011;5203;48.976;8.306;2023-02-01T18:11:21;14.97;;;4.47;;
10315;SDS011;5203;48.976;8.306;2023-02-01T18:13:48;9.17;;;3.80;;
10315;SDS011;5203;48.976;8.306;2023-02-01T18:16:36;10.63;;;3.93;;
10315;SDS011;5203;48.976;8.306;2023-02-01T18:19:01;8.80;;;3.93;;
10315;SDS011;5203;48.976;8.306;2023-02-01T18:21:30;12.10;;;4.00;;
10315;SDS011;5203;48.976;8.306;2023-02-01T18:23:59;9.33;;;3.57;;
10315;SDS011;5203;48.976;8.306;2023-02-01T18:26:25;7.00;;;3.27;;